Terminal Aerodrome Forecast
Issued by NWS

Home | Current Version | Previous Version | Text Only | Print | Product List | Glossary On
Versions: 1 2 3 4 5 6 7 8 9 10 11 12 13
000
FTUS42 TJSJ 201750
TAFISX
TAF
TISX 201750Z 2018/2118 11010KT P6SM VCSH SCT019 BKN070
     FM202300 07006KT P6SM VCSH FEW030
     FM211300 10015KT P6SM FEW030=

USA.gov is the U.S. government's official web portal to all federal, state and local government web resources and services.